sensor_id;sensor_type;location;lat;lon;timestamp;pressure;altitude;pressure_sealevel;temperature;humidity
68822;BME280;55834;50.870;4.606;2022-11-22T00:00:23;98508.97;;;5.14;65.22
68822;BME280;55834;50.870;4.606;2022-11-22T00:02:52;98513.91;;;5.42;63.53
68822;BME280;55834;50.870;4.606;2022-11-22T00:05:19;98502.19;;;5.10;64.68
68822;BME280;55834;50.870;4.606;2022-11-22T00:07:44;98504.19;;;4.82;64.76
68822;BME280;55834;50.870;4.606;2022-11-22T00:10:11;98492.56;;;5.11;65.31
68822;BME280;55834;50.870;4.606;2022-11-22T00:12:37;98495.84;;;5.16;64.61
68822;BME280;55834;50.870;4.606;2022-11-22T00:15:04;98495.63;;;4.78;64.94
68822;BME280;55834;50.870;4.606;2022-11-22T00:17:30;98498.69;;;4.22;67.06
68822;BME280;55834;50.870;4.606;2022-11-22T00:19:56;98499.09;;;4.79;66.19
68822;BME280;55834;50.870;4.606;2022-11-22T00:22:21;98506.94;;;4.79;65.44
68822;BME280;55834;50.870;4.606;2022-11-22T00:24:47;98507.44;;;4.21;65.79
68822;BME280;55834;50.870;4.606;2022-11-22T00:27:13;98509.75;;;4.52;65.98
68822;BME280;55834;50.870;4.606;2022-11-22T00:29:38;98510.56;;;4.07;67.07
68822;BME280;55834;50.870;4.606;2022-11-22T00:32:04;98511.53;;;4.04;67.50
68822;BME280;55834;50.870;4.606;2022-11-22T00:34:29;98507.91;;;4.76;65.33
68822;BME280;55834;50.870;4.606;2022-11-22T00:36:54;98497.16;;;4.62;64.03
68822;BME280;55834;50.870;4.606;2022-11-22T00:39:20;98496.78;;;4.71;64.10
68822;BME280;55834;50.870;4.606;2022-11-22T00:41:45;98501.34;;;4.66;63.56
68822;BME280;55834;50.870;4.606;2022-11-22T00:44:10;98498.59;;;4.91;63.34
68822;BME280;55834;50.870;4.606;2022-11-22T00:46:35;98508.69;;;4.56;65.04
68822;BME280;55834;50.870;4.606;2022-11-22T00:49:01;98509.47;;;4.36;64.86
68822;BME280;55834;50.870;4.606;2022-11-22T00:51:26;98512.16;;;4.57;64.83
68822;BME280;55834;50.870;4.606;2022-11-22T00:53:51;98501.28;;;4.67;63.83
68822;BME280;55834;50.870;4.606;2022-11-22T00:56:17;98501.03;;;4.73;64.09
68822;BME280;55834;50.870;4.606;2022-11-22T00:58:42;98514.31;;;4.00;65.30
68822;BME280;55834;50.870;4.606;2022-11-22T01:01:07;98514.47;;;3.72;65.69
68822;BME280;55834;50.870;4.606;2022-11-22T01:03:33;98510.31;;;4.15;65.92
68822;BME280;55834;50.870;4.606;2022-11-22T01:05:58;98508.03;;;4.51;63.42
68822;BME280;55834;50.870;4.606;2022-11-22T01:08:23;98510.03;;;4.44;63.85
68822;BME280;55834;50.870;4.606;2022-11-22T01:10:54;98505.59;;;4.01;65.59
68822;BME280;55834;50.870;4.606;2022-11-22T01:13:20;98508.44;;;4.40;63.39
68822;BME280;55834;50.870;4.606;2022-11-22T01:15:45;98524.69;;;4.25;63.86
68822;BME280;55834;50.870;4.606;2022-11-22T01:18:11;98525.31;;;3.84;64.55
68822;BME280;55834;50.870;4.606;2022-11-22T01:20:38;98515.22;;;4.22;64.34
68822;BME280;55834;50.870;4.606;2022-11-22T01:23:04;98518.66;;;4.46;62.30
68822;BME280;55834;50.870;4.606;2022-11-22T01:25:29;98510.16;;;4.41;62.46
68822;BME280;55834;50.870;4.606;2022-11-22T01:27:54;98508.41;;;4.18;62.97
68822;BME280;55834;50.870;4.606;2022-11-22T01:30:20;98518.22;;;4.57;61.98
68822;BME280;55834;50.870;4.606;2022-11-22T01:32:45;98531.59;;;3.79;63.91
68822;BME280;55834;50.870;4.606;2022-11-22T01:35:10;98522.06;;;4.03;62.96
68822;BME280;55834;50.870;4.606;2022-11-22T01:37:36;98531.47;;;3.83;64.39
68822;BME280;55834;50.870;4.606;2022-11-22T01:40:01;98537.88;;;3.98;63.64
68822;BME280;55834;50.870;4.606;2022-11-22T01:42:51;98542.72;;;4.09;63.60
68822;BME280;55834;50.870;4.606;2022-11-22T01:50:28;98544.25;;;4.15;62.01
68822;BME280;55834;50.870;4.606;2022-11-22T01:52:59;98548.66;;;4.13;63.71
68822;BME280;55834;50.870;4.606;2022-11-22T01:55:27;98555.28;;;3.74;64.57
68822;BME280;55834;50.870;4.606;2022-11-22T01:57:52;98548.34;;;3.73;64.72
68822;BME280;55834;50.870;4.606;2022-11-22T02:00:18;98559.56;;;2.97;66.07
68822;BME280;55834;50.870;4.606;2022-11-22T02:02:45;98552.88;;;3.43;66.76
68822;BME280;55834;50.870;4.606;2022-11-22T02:05:12;98546.78;;;3.93;64.37
68822;BME280;55834;50.870;4.606;2022-11-22T02:07:49;98546.44;;;3.78;64.32
68822;BME280;55834;50.870;4.606;2022-11-22T02:10:19;98548.06;;;3.81;63.25
68822;BME280;55834;50.870;4.606;2022-11-22T02:12:47;98551.03;;;3.20;65.19
68822;BME280;55834;50.870;4.606;2022-11-22T02:15:14;98558.03;;;3.18;65.77
68822;BME280;55834;50.870;4.606;2022-11-22T02:17:39;98538.16;;;3.91;63.43
68822;BME280;55834;50.870;4.606;2022-11-22T02:20:06;98548.56;;;3.42;64.26
68822;BME280;55834;50.870;4.606;2022-11-22T02:22:51;98550.00;;;3.76;63.52
68822;BME280;55834;50.870;4.606;2022-11-22T02:27:59;98556.06;;;3.76;64.05
68822;BME280;55834;50.870;4.606;2022-11-22T02:30:24;98554.88;;;3.35;63.78
68822;BME280;55834;50.870;4.606;2022-11-22T02:32:50;98552.56;;;3.52;63.57
68822;BME280;55834;50.870;4.606;2022-11-22T02:35:19;98551.16;;;3.67;63.26
68822;BME280;55834;50.870;4.606;2022-11-22T02:37:46;98552.81;;;3.45;63.11
68822;BME280;55834;50.870;4.606;2022-11-22T02:40:13;98552.22;;;3.87;62.55
68822;BME280;55834;50.870;4.606;2022-11-22T02:42:41;98554.34;;;4.00;62.93
68822;BME280;55834;50.870;4.606;2022-11-22T02:45:08;98557.19;;;3.69;62.08
68822;BME280;55834;50.870;4.606;2022-11-22T02:47:34;98552.25;;;4.10;61.09
68822;BME280;55834;50.870;4.606;2022-11-22T02:49:59;98559.22;;;3.61;62.19
68822;BME280;55834;50.870;4.606;2022-11-22T02:52:25;98552.00;;;2.89;64.48
68822;BME280;55834;50.870;4.606;2022-11-22T02:54:50;98550.78;;;3.53;64.09
68822;BME280;55834;50.870;4.606;2022-11-22T02:57:15;98547.84;;;3.87;62.05
68822;BME280;55834;50.870;4.606;2022-11-22T02:59:41;98554.47;;;3.72;62.31
68822;BME280;55834;50.870;4.606;2022-11-22T03:02:06;98548.88;;;3.83;62.16
68822;BME280;55834;50.870;4.606;2022-11-22T03:04:31;98557.44;;;3.87;62.46
68822;BME280;55834;50.870;4.606;2022-11-22T03:06:58;98563.03;;;3.76;62.15
68822;BME280;55834;50.870;4.606;2022-11-22T03:09:25;98565.13;;;3.66;62.39
68822;BME280;55834;50.870;4.606;2022-11-22T03:11:51;98569.50;;;3.66;62.07
68822;BME280;55834;50.870;4.606;2022-11-22T03:14:16;98573.31;;;3.55;62.31
68822;BME280;55834;50.870;4.606;2022-11-22T03:16:43;98572.41;;;3.81;62.38
68822;BME280;55834;50.870;4.606;2022-11-22T03:19:09;98569.91;;;3.53;63.32
68822;BME280;55834;50.870;4.606;2022-11-22T03:21:35;98573.59;;;3.21;62.84
68822;BME280;55834;50.870;4.606;2022-11-22T03:24:00;98578.16;;;3.41;62.69
68822;BME280;55834;50.870;4.606;2022-11-22T03:26:26;98566.41;;;3.54;62.62
68822;BME280;55834;50.870;4.606;2022-11-22T03:28:51;98574.53;;;3.18;63.77
68822;BME280;55834;50.870;4.606;2022-11-22T03:31:16;98573.97;;;2.81;64.97
68822;BME280;55834;50.870;4.606;2022-11-22T03:33:42;98578.56;;;3.01;64.73
68822;BME280;55834;50.870;4.606;2022-11-22T03:36:07;98573.41;;;2.99;63.42
68822;BME280;55834;50.870;4.606;2022-11-22T03:38:33;98575.84;;;3.32;63.72
68822;BME280;55834;50.870;4.606;2022-11-22T03:40:59;98571.06;;;3.18;63.21
68822;BME280;55834;50.870;4.606;2022-11-22T03:43:24;98584.41;;;3.09;63.52
68822;BME280;55834;50.870;4.606;2022-11-22T03:45:49;98586.06;;;3.11;63.52
68822;BME280;55834;50.870;4.606;2022-11-22T03:48:15;98596.38;;;3.14;65.03
68822;BME280;55834;50.870;4.606;2022-11-22T03:50:40;98600.38;;;2.98;64.06
68822;BME280;55834;50.870;4.606;2022-11-22T03:53:06;98603.69;;;3.03;64.39
68822;BME280;55834;50.870;4.606;2022-11-22T03:55:32;98607.41;;;2.96;63.36
68822;BME280;55834;50.870;4.606;2022-11-22T03:57:57;98606.72;;;3.17;64.03
68822;BME280;55834;50.870;4.606;2022-11-22T04:00:23;98601.44;;;3.21;63.86
68822;BME280;55834;50.870;4.606;2022-11-22T04:02:48;98614.34;;;3.25;63.13
68822;BME280;55834;50.870;4.606;2022-11-22T04:05:14;98614.06;;;3.33;62.43
68822;BME280;55834;50.870;4.606;2022-11-22T04:07:39;98615.63;;;3.38;61.80
68822;BME280;55834;50.870;4.606;2022-11-22T04:10:06;98618.78;;;3.22;62.41
68822;BME280;55834;50.870;4.606;2022-11-22T04:12:31;98620.41;;;3.26;61.80
68822;BME280;55834;50.870;4.606;2022-11-22T04:14:57;98621.69;;;3.39;62.65
68822;BME280;55834;50.870;4.606;2022-11-22T04:17:42;98620.50;;;2.65;65.52
68822;BME280;55834;50.870;4.606;2022-11-22T04:23:02;98607.22;;;2.72;64.08
68822;BME280;55834;50.870;4.606;2022-11-22T04:25:29;98607.31;;;2.99;63.78
68822;BME280;55834;50.870;4.606;2022-11-22T04:27:55;98606.16;;;3.08;63.64
68822;BME280;55834;50.870;4.606;2022-11-22T04:30:21;98603.56;;;2.80;64.91
68822;BME280;55834;50.870;4.606;2022-11-22T04:33:08;98598.69;;;2.97;63.46
68822;BME280;55834;50.870;4.606;2022-11-22T04:35:35;98592.94;;;2.86;63.80
68822;BME280;55834;50.870;4.606;2022-11-22T04:38:00;98593.06;;;2.81;63.28
68822;BME280;55834;50.870;4.606;2022-11-22T04:40:25;98588.56;;;3.43;62.61
68822;BME280;55834;50.870;4.606;2022-11-22T04:42:51;98585.59;;;3.27;62.75
68822;BME280;55834;50.870;4.606;2022-11-22T04:45:34;98582.72;;;3.34;63.92
68822;BME280;55834;50.870;4.606;2022-11-22T04:48:00;98577.56;;;3.33;61.90
68822;BME280;55834;50.870;4.606;2022-11-22T04:50:27;98591.91;;;3.46;61.75
68822;BME280;55834;50.870;4.606;2022-11-22T04:53:12;98583.28;;;3.69;61.68
68822;BME280;55834;50.870;4.606;2022-11-22T04:55:38;98593.41;;;3.27;61.32
68822;BME280;55834;50.870;4.606;2022-11-22T04:58:03;98593.06;;;3.09;63.83
68822;BME280;55834;50.870;4.606;2022-11-22T05:00:29;98593.91;;;3.10;63.79
68822;BME280;55834;50.870;4.606;2022-11-22T05:02:56;98599.59;;;2.96;63.90
68822;BME280;55834;50.870;4.606;2022-11-22T05:05:22;98592.34;;;3.04;62.90
68822;BME280;55834;50.870;4.606;2022-11-22T05:07:48;98598.06;;;3.15;63.61
68822;BME280;55834;50.870;4.606;2022-11-22T05:10:14;98592.38;;;2.76;64.08
68822;BME280;55834;50.870;4.606;2022-11-22T05:12:40;98599.41;;;3.02;63.37
68822;BME280;55834;50.870;4.606;2022-11-22T05:15:07;98596.13;;;3.24;63.37
68822;BME280;55834;50.870;4.606;2022-11-22T05:17:32;98592.97;;;2.56;63.67
68822;BME280;55834;50.870;4.606;2022-11-22T05:19:57;98593.88;;;3.11;63.26
68822;BME280;55834;50.870;4.606;2022-11-22T05:22:26;98589.38;;;3.16;62.31
68822;BME280;55834;50.870;4.606;2022-11-22T05:25:10;98592.41;;;3.31;61.84
68822;BME280;55834;50.870;4.606;2022-11-22T05:27:35;98582.44;;;3.15;62.85
68822;BME280;55834;50.870;4.606;2022-11-22T05:30:01;98591.00;;;3.21;63.13
68822;BME280;55834;50.870;4.606;2022-11-22T05:32:29;98588.59;;;3.41;61.97
68822;BME280;55834;50.870;4.606;2022-11-22T05:34:54;98583.78;;;3.01;63.18
68822;BME280;55834;50.870;4.606;2022-11-22T05:37:19;98581.59;;;2.87;62.56
68822;BME280;55834;50.870;4.606;2022-11-22T05:39:45;98578.88;;;2.91;63.43
68822;BME280;55834;50.870;4.606;2022-11-22T05:42:11;98575.13;;;3.00;63.98
68822;BME280;55834;50.870;4.606;2022-11-22T05:44:36;98572.81;;;3.17;62.28
68822;BME280;55834;50.870;4.606;2022-11-22T05:47:01;98568.97;;;3.29;62.69
68822;BME280;55834;50.870;4.606;2022-11-22T05:49:27;98576.16;;;3.23;62.45
68822;BME280;55834;50.870;4.606;2022-11-22T05:51:52;98569.94;;;3.27;62.14
68822;BME280;55834;50.870;4.606;2022-11-22T05:54:17;98578.88;;;2.91;64.71
68822;BME280;55834;50.870;4.606;2022-11-22T05:56:43;98581.88;;;3.06;63.48
68822;BME280;55834;50.870;4.606;2022-11-22T05:59:08;98583.09;;;2.67;64.99
68822;BME280;55834;50.870;4.606;2022-11-22T06:01:33;98587.53;;;2.64;65.01
68822;BME280;55834;50.870;4.606;2022-11-22T06:03:59;98584.22;;;2.87;65.39
68822;BME280;55834;50.870;4.606;2022-11-22T06:06:24;98578.25;;;2.83;65.17
68822;BME280;55834;50.870;4.606;2022-11-22T06:08:49;98589.28;;;2.91;64.92
68822;BME280;55834;50.870;4.606;2022-11-22T06:11:23;98588.84;;;2.79;64.94
68822;BME280;55834;50.870;4.606;2022-11-22T06:13:54;98598.03;;;2.90;65.09
68822;BME280;55834;50.870;4.606;2022-11-22T06:16:21;98600.53;;;3.48;64.22
68822;BME280;55834;50.870;4.606;2022-11-22T06:18:46;98598.81;;;3.21;64.26
68822;BME280;55834;50.870;4.606;2022-11-22T06:21:17;98598.00;;;3.18;65.41
68822;BME280;55834;50.870;4.606;2022-11-22T06:23:43;98602.00;;;2.74;65.61
68822;BME280;55834;50.870;4.606;2022-11-22T06:26:11;98604.84;;;3.23;64.70
68822;BME280;55834;50.870;4.606;2022-11-22T06:28:38;98604.53;;;3.04;65.34
68822;BME280;55834;50.870;4.606;2022-11-22T06:31:15;98613.97;;;3.36;64.64
68822;BME280;55834;50.870;4.606;2022-11-22T06:33:42;98609.25;;;3.47;63.87
68822;BME280;55834;50.870;4.606;2022-11-22T06:36:10;98610.75;;;3.54;63.52
68822;BME280;55834;50.870;4.606;2022-11-22T06:38:36;98611.94;;;3.17;64.69
68822;BME280;55834;50.870;4.606;2022-11-22T06:41:04;98607.56;;;3.18;64.97
68822;BME280;55834;50.870;4.606;2022-11-22T06:43:31;98610.91;;;3.50;63.80
68822;BME280;55834;50.870;4.606;2022-11-22T06:49:40;98602.00;;;4.05;62.81
68822;BME280;55834;50.870;4.606;2022-11-22T06:52:05;98599.13;;;4.13;63.19
68822;BME280;55834;50.870;4.606;2022-11-22T06:54:30;98609.31;;;3.46;64.05
68822;BME280;55834;50.870;4.606;2022-11-22T06:56:56;98601.59;;;3.68;64.00
68822;BME280;55834;50.870;4.606;2022-11-22T06:59:21;98605.53;;;3.79;63.88
68822;BME280;55834;50.870;4.606;2022-11-22T07:01:46;98596.81;;;3.55;63.88
68822;BME280;55834;50.870;4.606;2022-11-22T07:04:12;98604.75;;;3.26;64.82
68822;BME280;55834;50.870;4.606;2022-11-22T07:06:37;98601.13;;;3.30;64.76
68822;BME280;55834;50.870;4.606;2022-11-22T07:09:05;98603.94;;;3.50;64.82
68822;BME280;55834;50.870;4.606;2022-11-22T07:11:31;98600.97;;;3.86;63.54
68822;BME280;55834;50.870;4.606;2022-11-22T07:13:58;98613.00;;;3.90;62.90
68822;BME280;55834;50.870;4.606;2022-11-22T07:16:23;98621.13;;;3.01;65.50
68822;BME280;55834;50.870;4.606;2022-11-22T07:18:49;98624.25;;;3.67;64.24
68822;BME280;55834;50.870;4.606;2022-11-22T07:21:18;98624.41;;;3.62;64.59
68822;BME280;55834;50.870;4.606;2022-11-22T07:23:45;98631.78;;;3.50;63.51
68822;BME280;55834;50.870;4.606;2022-11-22T07:26:12;98627.91;;;3.35;64.33
68822;BME280;55834;50.870;4.606;2022-11-22T07:28:38;98639.56;;;3.25;64.86
68822;BME280;55834;50.870;4.606;2022-11-22T07:31:06;98637.25;;;3.69;64.55
68822;BME280;55834;50.870;4.606;2022-11-22T07:33:32;98639.75;;;3.72;64.03
68822;BME280;55834;50.870;4.606;2022-11-22T07:36:05;98639.75;;;3.72;63.18
68822;BME280;55834;50.870;4.606;2022-11-22T07:38:31;98632.81;;;3.71;63.40
68822;BME280;55834;50.870;4.606;2022-11-22T07:40:57;98631.50;;;3.84;62.81
68822;BME280;55834;50.870;4.606;2022-11-22T07:43:22;98635.31;;;3.74;63.81
68822;BME280;55834;50.870;4.606;2022-11-22T07:45:47;98636.38;;;3.42;64.76
68822;BME280;55834;50.870;4.606;2022-11-22T07:48:13;98642.13;;;3.53;64.00
68822;BME280;55834;50.870;4.606;2022-11-22T07:50:39;98640.00;;;3.37;64.40
68822;BME280;55834;50.870;4.606;2022-11-22T07:53:05;98636.38;;;3.42;65.04
68822;BME280;55834;50.870;4.606;2022-11-22T07:55:31;98637.75;;;3.53;64.12
68822;BME280;55834;50.870;4.606;2022-11-22T07:58:00;98641.03;;;3.85;63.72
68822;BME280;55834;50.870;4.606;2022-11-22T08:00:26;98644.88;;;3.75;63.28
68822;BME280;55834;50.870;4.606;2022-11-22T08:02:52;98654.16;;;3.57;63.58
68822;BME280;55834;50.870;4.606;2022-11-22T08:05:17;98644.94;;;3.47;64.48
68822;BME280;55834;50.870;4.606;2022-11-22T08:07:47;98636.81;;;3.81;63.91
68822;BME280;55834;50.870;4.606;2022-11-22T08:10:12;98635.31;;;3.22;65.08
68822;BME280;55834;50.870;4.606;2022-11-22T08:12:38;98633.25;;;3.32;64.63
68822;BME280;55834;50.870;4.606;2022-11-22T08:15:03;98632.69;;;3.74;63.76
68822;BME280;55834;50.870;4.606;2022-11-22T08:17:29;98627.50;;;3.99;64.09
68822;BME280;55834;50.870;4.606;2022-11-22T08:19:55;98626.81;;;4.42;62.25
68822;BME280;55834;50.870;4.606;2022-11-22T08:22:20;98631.91;;;4.22;63.51
68822;BME280;55834;50.870;4.606;2022-11-22T08:24:45;98630.03;;;4.25;62.52
68822;BME280;55834;50.870;4.606;2022-11-22T08:27:11;98633.44;;;4.51;62.50
68822;BME280;55834;50.870;4.606;2022-11-22T08:29:36;98625.34;;;4.59;61.52
68822;BME280;55834;50.870;4.606;2022-11-22T08:32:01;98621.41;;;4.70;60.93
68822;BME280;55834;50.870;4.606;2022-11-22T08:34:27;98628.78;;;4.12;62.48
68822;BME280;55834;50.870;4.606;2022-11-22T08:36:52;98617.84;;;3.76;64.59
68822;BME280;55834;50.870;4.606;2022-11-22T08:39:18;98620.50;;;4.24;64.36
68822;BME280;55834;50.870;4.606;2022-11-22T08:41:43;98627.50;;;4.47;63.41
68822;BME280;55834;50.870;4.606;2022-11-22T08:44:08;98619.72;;;4.69;62.23
68822;BME280;55834;50.870;4.606;2022-11-22T08:46:34;98615.25;;;4.49;62.45
68822;BME280;55834;50.870;4.606;2022-11-22T08:48:59;98628.81;;;4.11;63.56
68822;BME280;55834;50.870;4.606;2022-11-22T08:51:24;98623.97;;;4.48;62.44
68822;BME280;55834;50.870;4.606;2022-11-22T08:53:50;98626.22;;;3.60;63.92
68822;BME280;55834;50.870;4.606;2022-11-22T08:56:15;98620.00;;;4.38;62.97
68822;BME280;55834;50.870;4.606;2022-11-22T08:58:41;98617.53;;;4.57;62.85
68822;BME280;55834;50.870;4.606;2022-11-22T09:01:11;98620.00;;;4.38;63.40
68822;BME280;55834;50.870;4.606;2022-11-22T09:03:38;98623.13;;;4.48;63.85
68822;BME280;55834;50.870;4.606;2022-11-22T09:06:06;98610.44;;;4.84;62.63
68822;BME280;55834;50.870;4.606;2022-11-22T09:08:32;98611.59;;;4.99;61.40
68822;BME280;55834;50.870;4.606;2022-11-22T09:11:02;98616.66;;;5.26;61.30
68822;BME280;55834;50.870;4.606;2022-11-22T09:13:28;98614.41;;;5.16;60.73
68822;BME280;55834;50.870;4.606;2022-11-22T09:15:54;98608.34;;;4.92;61.91
68822;BME280;55834;50.870;4.606;2022-11-22T09:18:19;98616.56;;;5.05;62.31
68822;BME280;55834;50.870;4.606;2022-11-22T09:20:44;98611.97;;;5.12;62.03
68822;BME280;55834;50.870;4.606;2022-11-22T09:23:10;98616.28;;;5.35;61.96
68822;BME280;55834;50.870;4.606;2022-11-22T09:25:35;98618.88;;;4.91;63.19
68822;BME280;55834;50.870;4.606;2022-11-22T09:28:01;98619.78;;;5.13;63.25
68822;BME280;55834;50.870;4.606;2022-11-22T09:30:27;98615.69;;;5.28;62.39
68822;BME280;55834;50.870;4.606;2022-11-22T09:32:53;98618.25;;;5.06;63.33
68822;BME280;55834;50.870;4.606;2022-11-22T09:35:18;98619.22;;;5.04;62.72
68822;BME280;55834;50.870;4.606;2022-11-22T09:37:45;98611.25;;;5.30;62.93
68822;BME280;55834;50.870;4.606;2022-11-22T09:40:11;98610.88;;;5.17;62.62
68822;BME280;55834;50.870;4.606;2022-11-22T09:45:15;98604.38;;;4.37;65.95
68822;BME280;55834;50.870;4.606;2022-11-22T09:50:40;98611.56;;;4.77;64.19
68822;BME280;55834;50.870;4.606;2022-11-22T09:56:15;98608.38;;;5.14;63.85
68822;BME280;55834;50.870;4.606;2022-11-22T09:59:14;98605.50;;;4.53;63.96
68822;BME280;55834;50.870;4.606;2022-11-22T10:01:47;98603.66;;;4.79;63.82
68822;BME280;55834;50.870;4.606;2022-11-22T10:04:27;98611.97;;;4.43;65.06
68822;BME280;55834;50.870;4.606;2022-11-22T10:07:13;98608.91;;;4.79;63.33
68822;BME280;55834;50.870;4.606;2022-11-22T10:15:43;98595.72;;;4.82;63.18
68822;BME280;55834;50.870;4.606;2022-11-22T10:20:41;98595.91;;;5.21;63.70
68822;BME280;55834;50.870;4.606;2022-11-22T10:23:19;98592.59;;;5.38;62.63
68822;BME280;55834;50.870;4.606;2022-11-22T10:25:47;98590.41;;;5.70;61.80
68822;BME280;55834;50.870;4.606;2022-11-22T10:28:31;98597.63;;;5.22;62.02
68822;BME280;55834;50.870;4.606;2022-11-22T10:31:03;98593.13;;;5.26;61.87
68822;BME280;55834;50.870;4.606;2022-11-22T10:33:38;98588.56;;;5.31;62.09
68822;BME280;55834;50.870;4.606;2022-11-22T10:39:16;98601.00;;;5.24;62.43
68822;BME280;55834;50.870;4.606;2022-11-22T10:41:53;98581.03;;;5.64;61.76
68822;BME280;55834;50.870;4.606;2022-11-22T10:50:35;98575.75;;;5.45;62.16
68822;BME280;55834;50.870;4.606;2022-11-22T10:53:12;98561.22;;;5.58;62.12
68822;BME280;55834;50.870;4.606;2022-11-22T11:00:46;98560.06;;;6.05;60.67
68822;BME280;55834;50.870;4.606;2022-11-22T11:03:34;98557.06;;;5.73;61.61
68822;BME280;55834;50.870;4.606;2022-11-22T11:06:15;98554.16;;;5.40;62.07
68822;BME280;55834;50.870;4.606;2022-11-22T11:08:53;98555.13;;;5.58;62.55
68822;BME280;55834;50.870;4.606;2022-11-22T11:11:19;98563.09;;;5.34;61.93
68822;BME280;55834;50.870;4.606;2022-11-22T11:13:55;98560.22;;;5.40;61.94
68822;BME280;55834;50.870;4.606;2022-11-22T11:16:28;98559.91;;;5.28;61.74
68822;BME280;55834;50.870;4.606;2022-11-22T11:19:00;98567.31;;;4.94;63.81
68822;BME280;55834;50.870;4.606;2022-11-22T11:21:27;98571.53;;;4.75;64.32
68822;BME280;55834;50.870;4.606;2022-11-22T11:23:52;98567.81;;;5.04;62.84
68822;BME280;55834;50.870;4.606;2022-11-22T11:28:46;98569.66;;;5.01;64.05
68822;BME280;55834;50.870;4.606;2022-11-22T11:31:12;98554.47;;;4.88;64.46
68822;BME280;55834;50.870;4.606;2022-11-22T11:33:39;98561.53;;;5.30;63.61
68822;BME280;55834;50.870;4.606;2022-11-22T11:41:01;98560.38;;;5.15;63.37
68822;BME280;55834;50.870;4.606;2022-11-22T11:43:41;98571.28;;;5.47;62.98
68822;BME280;55834;50.870;4.606;2022-11-22T11:46:15;98559.84;;;5.50;63.72
68822;BME280;55834;50.870;4.606;2022-11-22T11:48:41;98564.59;;;5.19;63.87
68822;BME280;55834;50.870;4.606;2022-11-22T11:53:33;98573.03;;;4.82;66.11
68822;BME280;55834;50.870;4.606;2022-11-22T11:58:57;98568.44;;;5.11;65.18
68822;BME280;55834;50.870;4.606;2022-11-22T12:01:24;98569.16;;;5.14;65.29
68822;BME280;55834;50.870;4.606;2022-11-22T12:04:02;98561.38;;;5.13;65.02
68822;BME280;55834;50.870;4.606;2022-11-22T12:06:29;98548.56;;;4.83;66.18
68822;BME280;55834;50.870;4.606;2022-11-22T12:08:56;98552.69;;;5.33;65.58
68822;BME280;55834;50.870;4.606;2022-11-22T12:11:32;98547.97;;;5.20;65.68
68822;BME280;55834;50.870;4.606;2022-11-22T12:14:00;98553.31;;;5.17;65.14
68822;BME280;55834;50.870;4.606;2022-11-22T12:16:31;98544.72;;;5.36;65.29
68822;BME280;55834;50.870;4.606;2022-11-22T12:19:23;98550.03;;;5.55;63.46
68822;BME280;55834;50.870;4.606;2022-11-22T12:27:09;98539.00;;;5.87;62.06
68822;BME280;55834;50.870;4.606;2022-11-22T12:29:37;98537.81;;;5.95;62.04
68822;BME280;55834;50.870;4.606;2022-11-22T12:32:17;98531.91;;;6.29;61.09
68822;BME280;55834;50.870;4.606;2022-11-22T12:34:54;98533.75;;;6.27;60.90
68822;BME280;55834;50.870;4.606;2022-11-22T12:37:48;98528.53;;;5.87;61.77
68822;BME280;55834;50.870;4.606;2022-11-22T12:40:20;98533.00;;;6.04;62.72
68822;BME280;55834;50.870;4.606;2022-11-22T12:42:52;98531.56;;;6.18;61.66
68822;BME280;55834;50.870;4.606;2022-11-22T12:45:27;98546.56;;;5.12;63.96
68822;BME280;55834;50.870;4.606;2022-11-22T12:47:59;98534.84;;;5.63;63.36
68822;BME280;55834;50.870;4.606;2022-11-22T12:50:42;98532.34;;;5.80;62.58
68822;BME280;55834;50.870;4.606;2022-11-22T12:56:03;98528.91;;;5.99;61.44
68822;BME280;55834;50.870;4.606;2022-11-22T13:06:51;98537.59;;;5.60;63.02
68822;BME280;55834;50.870;4.606;2022-11-22T13:09:20;98544.91;;;5.72;63.33
68822;BME280;55834;50.870;4.606;2022-11-22T13:11:58;98547.81;;;5.46;64.74
68822;BME280;55834;50.870;4.606;2022-11-22T13:14:37;98539.50;;;5.96;62.98
68822;BME280;55834;50.870;4.606;2022-11-22T13:17:07;98550.88;;;5.76;63.70
68822;BME280;55834;50.870;4.606;2022-11-22T13:19:44;98551.44;;;6.03;63.26
68822;BME280;55834;50.870;4.606;2022-11-22T13:27:43;98548.66;;;5.46;65.41
68822;BME280;55834;50.870;4.606;2022-11-22T13:30:22;98554.53;;;5.92;64.26
68822;BME280;55834;50.870;4.606;2022-11-22T13:32:58;98554.47;;;5.73;63.77
68822;BME280;55834;50.870;4.606;2022-11-22T13:35:37;98550.88;;;6.15;63.52
68822;BME280;55834;50.870;4.606;2022-11-22T13:38:14;98556.03;;;5.77;64.22
68822;BME280;55834;50.870;4.606;2022-11-22T13:40:44;98566.38;;;5.39;65.26
68822;BME280;55834;50.870;4.606;2022-11-22T13:46:41;98549.34;;;5.91;64.76
68822;BME280;55834;50.870;4.606;2022-11-22T13:51:15;98553.38;;;6.56;62.65
68822;BME280;55834;50.870;4.606;2022-11-22T13:53:49;98555.84;;;6.21;63.74
68822;BME280;55834;50.870;4.606;2022-11-22T14:17:32;98568.22;;;6.37;63.67
68822;BME280;55834;50.870;4.606;2022-11-22T14:20:38;98562.09;;;6.38;62.01
68822;BME280;55834;50.870;4.606;2022-11-22T14:26:13;98556.91;;;6.74;61.62
68822;BME280;55834;50.870;4.606;2022-11-22T14:31:52;98559.84;;;6.49;62.30
68822;BME280;55834;50.870;4.606;2022-11-22T14:34:26;98555.06;;;6.38;62.87
68822;BME280;55834;50.870;4.606;2022-11-22T14:45:03;98561.19;;;6.76;61.83
68822;BME280;55834;50.870;4.606;2022-11-22T14:47:40;98562.41;;;7.06;60.74
68822;BME280;55834;50.870;4.606;2022-11-22T14:50:32;98567.13;;;7.16;59.96
68822;BME280;55834;50.870;4.606;2022-11-22T14:53:44;98569.84;;;6.78;61.19
68822;BME280;55834;50.870;4.606;2022-11-22T14:56:12;98569.94;;;6.94;61.10
68822;BME280;55834;50.870;4.606;2022-11-22T14:58:44;98565.00;;;6.50;61.96
68822;BME280;55834;50.870;4.606;2022-11-22T15:07:11;98573.50;;;6.93;59.58
68822;BME280;55834;50.870;4.606;2022-11-22T15:15:36;98586.22;;;6.84;59.17
68822;BME280;55834;50.870;4.606;2022-11-22T15:18:21;98585.72;;;6.75;59.79
68822;BME280;55834;50.870;4.606;2022-11-22T15:20:47;98595.88;;;6.04;61.43
68822;BME280;55834;50.870;4.606;2022-11-22T15:23:19;98599.44;;;6.22;61.87
68822;BME280;55834;50.870;4.606;2022-11-22T15:25:46;98594.50;;;6.16;61.71
68822;BME280;55834;50.870;4.606;2022-11-22T15:28:18;98603.16;;;6.18;61.37
68822;BME280;55834;50.870;4.606;2022-11-22T15:30:46;98598.56;;;6.42;60.46